createdAt,value
2023-05-08T00:01:31.254Z,8.78
2023-05-08T00:03:58.684Z,8.95
2023-05-08T00:06:27.821Z,8.80
2023-05-08T00:08:57.876Z,8.77
2023-05-08T00:11:24.778Z,8.82
2023-05-08T00:13:51.654Z,8.77
2023-05-08T00:16:18.617Z,8.76
2023-05-08T00:18:45.824Z,8.72
2023-05-08T00:21:12.684Z,8.58
2023-05-08T00:23:39.640Z,8.47
2023-05-08T00:26:07.173Z,8.38
2023-05-08T00:28:34.029Z,8.53
2023-05-08T00:31:04.239Z,8.72
2023-05-08T00:33:31.330Z,8.63
2023-05-08T00:36:02.324Z,8.38
2023-05-08T00:38:34.258Z,8.42
2023-05-08T00:41:01.991Z,8.38
2023-05-08T00:43:29.692Z,8.47
2023-05-08T00:45:58.823Z,8.64
2023-05-08T00:48:29.332Z,8.53
2023-05-08T00:50:57.318Z,8.51
2023-05-08T00:53:26.670Z,8.10
2023-05-08T00:55:53.780Z,8.53
2023-05-08T00:58:22.193Z,8.37
2023-05-08T01:00:51.175Z,8.32
2023-05-08T01:03:18.350Z,8.19
2023-05-08T01:05:46.153Z,8.28
2023-05-08T01:08:13.016Z,8.47
2023-05-08T01:11:13.151Z,8.35
2023-05-08T01:14:12.910Z,8.44
2023-05-08T01:17:37.051Z,8.39
2023-05-08T01:20:15.909Z,8.22
2023-05-08T01:23:19.816Z,8.37
2023-05-08T01:26:04.562Z,8.32
2023-05-08T01:29:01.524Z,8.25
2023-05-08T01:31:51.139Z,8.33
2023-05-08T01:34:24.546Z,8.13
2023-05-08T01:36:57.983Z,8.06
2023-05-08T01:39:54.865Z,8.26
2023-05-08T01:42:43.605Z,8.06
2023-05-08T01:45:31.357Z,7.89
2023-05-08T01:48:08.625Z,7.98
2023-05-08T01:50:47.165Z,7.97
2023-05-08T01:53:21.465Z,8.07
2023-05-08T01:55:51.202Z,7.93
2023-05-08T01:58:19.189Z,7.69
2023-05-08T02:00:47.531Z,7.78
2023-05-08T02:03:16.190Z,7.78
2023-05-08T02:05:44.437Z,7.74
2023-05-08T02:08:14.234Z,7.61
2023-05-08T02:10:42.811Z,7.54
2023-05-08T02:13:12.269Z,7.71
2023-05-08T02:15:40.138Z,7.61
2023-05-08T02:18:08.920Z,7.57
2023-05-08T02:20:38.154Z,7.27
2023-05-08T02:23:05.593Z,7.24
2023-05-08T02:25:33.562Z,7.50
2023-05-08T02:28:02.108Z,7.43
2023-05-08T02:30:29.577Z,7.27
2023-05-08T02:33:00.584Z,7.41
2023-05-08T02:35:31.148Z,7.15
2023-05-08T02:37:59.664Z,7.23
2023-05-08T02:40:29.610Z,7.38
2023-05-08T02:42:57.331Z,7.32
2023-05-08T02:45:29.013Z,7.34
2023-05-08T02:48:12.320Z,7.07
2023-05-08T02:50:50.456Z,7.18
2023-05-08T02:53:26.632Z,7.31
2023-05-08T02:55:58.249Z,6.52
2023-05-08T02:58:40.238Z,6.94
2023-05-08T03:01:27.589Z,7.02
2023-05-08T03:04:15.856Z,6.85
2023-05-08T03:06:47.153Z,6.95
2023-05-08T03:09:21.011Z,7.05
2023-05-08T03:11:52.016Z,7.00
2023-05-08T03:14:22.839Z,6.94
2023-05-08T03:16:53.821Z,6.91
2023-05-08T03:19:31.870Z,6.98
2023-05-08T03:22:01.906Z,6.73
2023-05-08T03:24:31.645Z,6.79
2023-05-08T03:27:00.101Z,6.76
2023-05-08T03:29:28.556Z,6.65
2023-05-08T03:31:58.745Z,6.64
2023-05-08T03:34:25.848Z,6.46
2023-05-08T03:36:53.370Z,6.54
2023-05-08T03:39:20.512Z,6.66
2023-05-08T03:41:48.172Z,6.67
2023-05-08T03:44:16.792Z,6.50
2023-05-08T03:46:45.235Z,6.61
2023-05-08T03:49:12.905Z,6.49
2023-05-08T03:51:42.641Z,6.39
2023-05-08T03:54:09.495Z,6.31
2023-05-08T03:56:36.635Z,6.44
2023-05-08T03:59:27.133Z,6.59
2023-05-08T04:02:05.213Z,6.34
2023-05-08T04:04:55.890Z,6.47
2023-05-08T04:07:29.866Z,6.32
2023-05-08T04:10:13.892Z,6.42
2023-05-08T04:12:54.748Z,6.33
2023-05-08T04:15:28.890Z,6.51
2023-05-08T04:18:00.836Z,6.47
2023-05-08T04:20:30.640Z,6.35
2023-05-08T04:22:59.243Z,6.16
2023-05-08T04:25:27.230Z,6.28
2023-05-08T04:27:56.352Z,6.28
2023-05-08T04:30:24.634Z,6.51
2023-05-08T04:32:52.760Z,6.82
2023-05-08T04:35:20.131Z,6.76
2023-05-08T04:37:48.648Z,6.59
2023-05-08T04:40:16.562Z,6.72
2023-05-08T04:42:47.487Z,6.63
2023-05-08T04:45:16.796Z,6.70
2023-05-08T04:47:43.750Z,6.55
2023-05-08T04:50:11.465Z,6.66
2023-05-08T04:52:38.390Z,6.70
2023-05-08T04:55:06.895Z,6.55
2023-05-08T04:57:35.874Z,6.76
2023-05-08T05:00:03.502Z,6.79
2023-05-08T05:02:32.100Z,6.58
2023-05-08T05:05:01.476Z,7.06
2023-05-08T05:07:29.348Z,6.74
2023-05-08T05:09:56.424Z,6.94
2023-05-08T05:12:23.314Z,6.71
2023-05-08T05:14:50.152Z,7.16
2023-05-08T05:17:17.044Z,7.30
2023-05-08T05:19:43.905Z,7.28
2023-05-08T05:22:13.808Z,6.91
2023-05-08T05:24:41.784Z,7.35
2023-05-08T05:27:08.714Z,7.45
2023-05-08T05:29:35.695Z,7.35
2023-05-08T05:32:03.422Z,7.68
2023-05-08T05:34:30.479Z,7.75
2023-05-08T05:36:57.357Z,7.81
2023-05-08T05:39:24.915Z,7.88
2023-05-08T05:41:51.837Z,8.06
2023-05-08T05:44:18.788Z,8.25
2023-05-08T05:46:45.761Z,7.91
2023-05-08T05:49:12.889Z,7.84
2023-05-08T05:51:39.970Z,7.76
2023-05-08T05:54:06.846Z,7.86
2023-05-08T05:56:34.470Z,7.85
2023-05-08T05:59:01.445Z,8.12
2023-05-08T06:01:29.355Z,8.38
2023-05-08T06:03:56.946Z,8.08
2023-05-08T06:06:25.046Z,7.70
2023-05-08T06:08:51.977Z,8.05
2023-05-08T06:11:18.883Z,8.25
2023-05-08T06:13:46.597Z,8.50
2023-05-08T06:16:14.522Z,8.46
2023-05-08T06:18:41.644Z,8.34
2023-05-08T06:21:09.728Z,8.33
2023-05-08T06:23:36.848Z,8.50
2023-05-08T06:26:03.802Z,8.24
2023-05-08T06:28:30.706Z,9.13
2023-05-08T06:30:57.574Z,9.49
2023-05-08T06:33:26.759Z,9.75
2023-05-08T06:35:54.022Z,9.54
2023-05-08T06:38:20.864Z,9.67
2023-05-08T06:40:50.280Z,9.85
2023-05-08T06:43:17.299Z,9.55
2023-05-08T06:45:45.650Z,9.96
2023-05-08T06:48:12.521Z,9.63
2023-05-08T06:50:40.885Z,9.27
2023-05-08T06:53:08.227Z,9.37
2023-05-08T06:55:35.058Z,9.18
2023-05-08T06:58:01.986Z,9.59
2023-05-08T07:00:28.942Z,9.41
2023-05-08T07:02:56.032Z,9.64
2023-05-08T07:05:23.210Z,9.82
2023-05-08T07:07:50.093Z,10.45
2023-05-08T07:10:20.086Z,10.51
2023-05-08T07:12:47.090Z,10.55
2023-05-08T07:15:25.385Z,11.08
2023-05-08T07:17:54.361Z,11.51
2023-05-08T07:20:21.868Z,11.73
2023-05-08T07:22:48.930Z,11.20
2023-05-08T07:25:16.378Z,11.10
2023-05-08T07:27:43.466Z,10.55
2023-05-08T07:30:10.983Z,10.84
2023-05-08T07:32:39.585Z,10.89
2023-05-08T07:35:10.775Z,10.74
2023-05-08T07:37:39.557Z,11.49
2023-05-08T07:40:07.332Z,11.30
2023-05-08T07:42:44.832Z,11.34
2023-05-08T07:45:13.329Z,11.46
2023-05-08T07:47:55.500Z,11.04
2023-05-08T07:50:22.666Z,11.48
2023-05-08T07:52:50.454Z,11.49
2023-05-08T07:55:18.766Z,12.09
2023-05-08T07:57:46.069Z,11.67
2023-05-08T08:00:15.193Z,11.83
2023-05-08T08:02:42.859Z,11.83
2023-05-08T08:05:10.291Z,11.98
2023-05-08T08:07:37.627Z,12.00
2023-05-08T08:10:05.073Z,11.78
2023-05-08T08:12:32.250Z,12.35
2023-05-08T08:14:59.170Z,12.13
2023-05-08T08:17:28.537Z,12.27
2023-05-08T08:19:56.111Z,12.35
2023-05-08T08:22:23.958Z,12.31
2023-05-08T08:24:52.396Z,13.17
2023-05-08T08:27:21.060Z,13.14
2023-05-08T08:29:47.995Z,13.49
2023-05-08T08:32:14.980Z,13.80
2023-05-08T08:34:41.805Z,13.08
2023-05-08T08:37:08.674Z,13.25
2023-05-08T08:39:35.983Z,13.42
2023-05-08T08:42:03.845Z,13.11
2023-05-08T08:44:30.736Z,13.29
2023-05-08T08:47:00.254Z,13.34
2023-05-08T08:49:34.667Z,12.94
2023-05-08T08:52:15.837Z,13.49
2023-05-08T08:54:46.549Z,13.80
2023-05-08T08:57:14.539Z,13.45
2023-05-08T08:59:43.437Z,13.90
2023-05-08T09:02:14.956Z,13.96
2023-05-08T09:04:41.836Z,13.20
2023-05-08T09:07:09.447Z,13.61
2023-05-08T09:09:41.116Z,13.34
2023-05-08T09:12:08.210Z,13.16
2023-05-08T09:14:35.281Z,13.27
2023-05-08T09:17:02.635Z,13.21
2023-05-08T09:19:30.126Z,13.52
2023-05-08T09:22:01.271Z,13.99
2023-05-08T09:24:58.176Z,13.60
2023-05-08T09:27:26.825Z,13.39
2023-05-08T09:30:10.919Z,13.54
2023-05-08T09:32:39.749Z,13.80
2023-05-08T09:35:08.400Z,13.66
2023-05-08T09:37:39.491Z,14.24
2023-05-08T09:40:15.673Z,14.16
2023-05-08T09:42:42.835Z,14.06
2023-05-08T09:45:10.381Z,14.51
2023-05-08T09:47:40.444Z,14.18
2023-05-08T09:50:09.912Z,14.11
2023-05-08T09:52:39.089Z,13.87
2023-05-08T09:55:08.344Z,14.25
2023-05-08T09:57:38.635Z,13.67
2023-05-08T10:00:13.504Z,13.89
2023-05-08T10:02:42.826Z,14.13
2023-05-08T10:05:32.953Z,14.09
2023-05-08T10:08:19.155Z,13.52
2023-05-08T10:10:46.352Z,14.30
2023-05-08T10:13:14.104Z,14.37
2023-05-08T10:15:44.782Z,14.01
2023-05-08T10:18:12.494Z,14.70
2023-05-08T10:20:41.713Z,14.36
2023-05-08T10:23:11.663Z,14.42
2023-05-08T10:25:54.157Z,14.14
2023-05-08T10:28:48.936Z,14.13
2023-05-08T10:31:18.414Z,14.40
2023-05-08T10:33:50.685Z,14.45
2023-05-08T10:36:17.758Z,14.17
2023-05-08T10:38:45.243Z,14.45
2023-05-08T10:41:12.476Z,14.73
2023-05-08T10:43:42.766Z,14.84
2023-05-08T10:46:31.092Z,14.31
2023-05-08T10:49:11.579Z,14.38
2023-05-08T10:52:08.379Z,15.02
2023-05-08T10:54:53.912Z,15.00
2023-05-08T10:57:20.739Z,15.31
2023-05-08T10:59:47.933Z,14.86
2023-05-08T11:02:15.970Z,14.58
2023-05-08T11:04:44.125Z,14.90
2023-05-08T11:07:11.861Z,14.78
2023-05-08T11:09:41.423Z,15.37
2023-05-08T11:12:16.548Z,15.81
2023-05-08T11:14:53.491Z,15.35
2023-05-08T11:17:24.834Z,15.28
2023-05-08T11:19:57.458Z,15.30
2023-05-08T11:22:27.382Z,15.16
2023-05-08T11:24:56.650Z,15.01
2023-05-08T11:27:36.558Z,14.83
2023-05-08T11:30:18.731Z,14.87
2023-05-08T11:33:04.343Z,15.06
2023-05-08T11:35:48.735Z,14.83
2023-05-08T11:38:21.724Z,15.46
2023-05-08T11:40:58.690Z,15.94
2023-05-08T11:43:34.397Z,15.98
2023-05-08T11:46:04.458Z,15.83
2023-05-08T11:48:33.016Z,15.35
2023-05-08T11:51:00.872Z,15.18
2023-05-08T11:53:29.103Z,15.66
2023-05-08T11:55:56.215Z,15.61
2023-05-08T11:58:23.350Z,16.26
2023-05-08T12:00:50.604Z,16.16
2023-05-08T12:03:28.113Z,16.24
2023-05-08T12:05:59.738Z,16.27
2023-05-08T12:08:27.056Z,16.06
2023-05-08T12:10:57.065Z,16.14
2023-05-08T12:13:27.637Z,16.61
2023-05-08T12:15:57.045Z,16.78
2023-05-08T12:18:26.431Z,16.88
2023-05-08T12:20:57.257Z,17.40
2023-05-08T12:23:29.609Z,16.73
2023-05-08T12:26:00.717Z,15.89
2023-05-08T12:28:28.044Z,15.58
2023-05-08T12:30:55.254Z,15.56
2023-05-08T12:33:22.677Z,15.86
2023-05-08T12:35:49.753Z,15.83
2023-05-08T12:38:16.904Z,15.63
2023-05-08T12:40:46.272Z,15.46
2023-05-08T12:43:13.217Z,15.36
2023-05-08T12:45:42.099Z,15.65
2023-05-08T12:48:11.297Z,15.61
2023-05-08T12:50:40.588Z,15.32
2023-05-08T12:53:15.803Z,15.55
2023-05-08T12:55:57.620Z,16.03
2023-05-08T12:58:26.524Z,15.97
2023-05-08T13:00:54.340Z,15.64
2023-05-08T13:03:29.200Z,15.45
2023-05-08T13:05:57.912Z,15.79
2023-05-08T13:08:33.250Z,15.35
2023-05-08T13:11:01.389Z,15.69
2023-05-08T13:13:31.167Z,15.94
2023-05-08T13:15:58.141Z,16.11
2023-05-08T13:18:28.327Z,15.89
2023-05-08T13:20:56.395Z,15.71
2023-05-08T13:23:23.796Z,15.79
2023-05-08T13:25:51.570Z,15.60
2023-05-08T13:28:18.497Z,15.47
2023-05-08T13:30:45.567Z,15.86
2023-05-08T13:33:12.598Z,16.51
2023-05-08T13:35:39.505Z,16.75
2023-05-08T13:38:06.348Z,16.28
2023-05-08T13:40:33.447Z,16.04
2023-05-08T13:43:00.410Z,15.95
2023-05-08T13:45:27.446Z,16.00
2023-05-08T13:47:54.870Z,16.25
2023-05-08T13:50:22.460Z,16.19
2023-05-08T13:52:50.975Z,16.38
2023-05-08T13:55:22.210Z,16.60
2023-05-08T13:57:49.151Z,16.22
2023-05-08T14:00:16.977Z,16.34
2023-05-08T14:02:43.977Z,16.14
2023-05-08T14:05:11.112Z,16.27
2023-05-08T14:07:38.315Z,16.14
2023-05-08T14:10:05.718Z,15.93
2023-05-08T14:12:36.605Z,16.54
2023-05-08T14:15:07.364Z,16.46
2023-05-08T14:17:34.573Z,16.60
2023-05-08T14:20:01.514Z,17.21
2023-05-08T14:22:28.617Z,18.10
2023-05-08T14:24:55.681Z,17.65
2023-05-08T14:27:22.645Z,17.50
2023-05-08T14:29:49.813Z,17.60
2023-05-08T14:32:16.790Z,16.96
2023-05-08T14:34:43.734Z,17.42
2023-05-08T14:37:11.500Z,16.68
2023-05-08T14:39:38.395Z,16.71
2023-05-08T14:42:22.348Z,16.07
2023-05-08T14:44:50.150Z,15.93
2023-05-08T14:47:17.142Z,15.77
2023-05-08T14:49:44.028Z,15.44
2023-05-08T14:52:10.892Z,15.78
2023-05-08T14:54:38.517Z,15.70
2023-05-08T14:57:05.668Z,15.98
2023-05-08T14:59:32.511Z,15.94
2023-05-08T15:01:59.364Z,15.73
2023-05-08T15:04:26.216Z,15.93
2023-05-08T15:06:53.217Z,15.91
2023-05-08T15:09:20.111Z,15.65
2023-05-08T15:11:47.072Z,15.47
2023-05-08T15:14:13.954Z,15.54
2023-05-08T15:16:40.886Z,16.15
2023-05-08T15:19:09.784Z,15.96
2023-05-08T15:21:36.787Z,15.74
2023-05-08T15:24:03.854Z,15.99
2023-05-08T15:26:30.767Z,15.94
2023-05-08T15:28:57.697Z,16.02
2023-05-08T15:31:24.606Z,15.89
2023-05-08T15:33:51.525Z,16.13
2023-05-08T15:36:18.397Z,16.08
2023-05-08T15:38:45.292Z,16.05
2023-05-08T15:41:15.083Z,15.88
2023-05-08T15:43:43.168Z,15.87
2023-05-08T15:46:10.379Z,15.79
2023-05-08T15:48:37.366Z,15.85
2023-05-08T15:51:04.430Z,15.92
2023-05-08T15:53:32.628Z,16.00
2023-05-08T15:55:59.533Z,15.85
2023-05-08T15:58:26.980Z,15.82
2023-05-08T16:00:53.897Z,15.65
2023-05-08T16:03:20.940Z,15.57
2023-05-08T16:05:48.243Z,15.40
2023-05-08T16:08:15.243Z,15.47
2023-05-08T16:10:42.294Z,15.43
2023-05-08T16:13:09.761Z,15.49
2023-05-08T16:15:36.826Z,15.81
2023-05-08T16:18:03.957Z,15.49
2023-05-08T16:20:32.826Z,15.52
2023-05-08T16:23:00.462Z,15.32
2023-05-08T16:25:27.418Z,15.77
2023-05-08T16:27:54.310Z,15.55
2023-05-08T16:30:21.226Z,15.74
2023-05-08T16:32:48.142Z,15.53
2023-05-08T16:35:15.457Z,15.71
2023-05-08T16:37:42.814Z,15.63
2023-05-08T16:40:12.857Z,15.44
2023-05-08T16:42:39.784Z,15.59
2023-05-08T16:45:07.702Z,15.63
2023-05-08T16:47:34.821Z,15.48
2023-05-08T16:50:01.943Z,15.29
2023-05-08T16:52:29.010Z,15.51
2023-05-08T16:54:55.948Z,15.30
2023-05-08T16:57:22.908Z,15.45
2023-05-08T16:59:49.959Z,15.43
2023-05-08T17:02:19.831Z,15.01
2023-05-08T17:04:47.936Z,14.89
2023-05-08T17:07:15.815Z,15.10
2023-05-08T17:09:43.032Z,15.28
2023-05-08T17:12:10.601Z,15.14
2023-05-08T17:14:39.548Z,15.20
2023-05-08T17:17:07.084Z,15.22
2023-05-08T17:19:34.285Z,15.18
2023-05-08T17:22:01.332Z,15.21
2023-05-08T17:24:30.151Z,15.26
2023-05-08T17:26:57.125Z,15.01
2023-05-08T17:29:23.976Z,14.98
2023-05-08T17:31:50.981Z,15.17
2023-05-08T17:34:17.982Z,15.00
2023-05-08T17:36:44.985Z,15.07
2023-05-08T17:39:12.373Z,15.14
2023-05-08T17:41:39.288Z,14.98
2023-05-08T17:44:06.296Z,15.04
2023-05-08T17:46:33.251Z,14.84
2023-05-08T17:49:00.209Z,14.79
2023-05-08T17:51:27.226Z,15.04
2023-05-08T17:53:54.108Z,14.89
2023-05-08T17:56:23.371Z,14.76
2023-05-08T17:58:52.073Z,14.69
2023-05-08T18:01:19.879Z,14.66
2023-05-08T18:03:48.522Z,14.56
2023-05-08T18:06:19.301Z,14.45
2023-05-08T18:08:46.667Z,14.62
2023-05-08T18:11:20.462Z,14.60
2023-05-08T18:13:47.716Z,14.44
2023-05-08T18:16:16.238Z,14.66
2023-05-08T18:18:43.788Z,14.59
2023-05-08T18:21:11.146Z,14.34
2023-05-08T18:23:38.143Z,14.43
2023-05-08T18:26:05.686Z,14.51
2023-05-08T18:28:32.792Z,14.37
2023-05-08T18:30:59.765Z,14.30
2023-05-08T18:33:26.812Z,14.25
2023-05-08T18:35:53.805Z,14.12
2023-05-08T18:38:20.958Z,14.01
2023-05-08T18:40:48.028Z,14.21
2023-05-08T18:43:15.055Z,14.17
2023-05-08T18:46:05.317Z,14.01
2023-05-08T18:48:35.833Z,13.88
2023-05-08T18:51:02.876Z,13.95
2023-05-08T18:53:30.843Z,13.94
2023-05-08T18:55:57.865Z,14.00
2023-05-08T18:58:24.886Z,13.92
2023-05-08T19:00:55.974Z,13.90
2023-05-08T19:03:24.232Z,13.86
2023-05-08T19:05:52.085Z,14.08
2023-05-08T19:08:18.969Z,13.95
2023-05-08T19:10:46.008Z,14.07
2023-05-08T19:13:12.921Z,13.84
2023-05-08T19:15:40.024Z,13.68
2023-05-08T19:18:07.936Z,13.85
2023-05-08T19:20:35.105Z,13.77
2023-05-08T19:23:02.034Z,13.72
2023-05-08T19:25:28.999Z,13.78
2023-05-08T19:27:56.807Z,13.68
2023-05-08T19:30:26.910Z,13.67
2023-05-08T19:32:53.833Z,13.69
2023-05-08T19:35:21.483Z,13.77
2023-05-08T19:37:48.406Z,13.58
2023-05-08T19:40:16.611Z,13.76
2023-05-08T19:42:46.662Z,13.54
2023-05-08T19:45:13.755Z,13.74
2023-05-08T19:47:40.865Z,13.46
2023-05-08T19:50:08.437Z,13.57
2023-05-08T19:52:35.426Z,13.29
2023-05-08T19:55:02.409Z,13.58
2023-05-08T19:57:29.366Z,13.48
2023-05-08T19:59:56.369Z,13.37
2023-05-08T20:02:23.469Z,13.29
2023-05-08T20:05:14.321Z,13.13
2023-05-08T20:07:37.451Z,12.98
2023-05-08T20:10:04.730Z,12.88
2023-05-08T20:12:31.637Z,12.65
2023-05-08T20:14:58.567Z,12.81
2023-05-08T20:17:25.606Z,12.80
2023-05-08T20:19:52.556Z,12.65
2023-05-08T20:22:19.520Z,12.96
2023-05-08T20:24:46.370Z,12.85
2023-05-08T20:27:13.311Z,12.56
2023-05-08T20:29:40.164Z,12.69
2023-05-08T20:32:08.334Z,12.50
2023-05-08T20:34:35.503Z,12.55
2023-05-08T20:37:04.061Z,12.49
2023-05-08T20:39:31.003Z,12.73
2023-05-08T20:41:57.941Z,12.65
2023-05-08T20:44:24.926Z,12.43
2023-05-08T20:46:52.152Z,12.51
2023-05-08T20:49:21.558Z,12.18
2023-05-08T20:51:48.613Z,12.50
2023-05-08T20:54:15.774Z,12.28
2023-05-08T20:56:42.773Z,12.28
2023-05-08T20:59:09.775Z,12.22
2023-05-08T21:01:36.806Z,12.33
2023-05-08T21:04:03.811Z,12.42
2023-05-08T21:06:31.011Z,12.54
2023-05-08T21:08:58.086Z,12.43
2023-05-08T21:11:25.051Z,12.43
2023-05-08T21:13:51.929Z,12.41
2023-05-08T21:16:18.901Z,12.40
2023-05-08T21:18:45.878Z,12.27
2023-05-08T21:21:17.363Z,12.06
2023-05-08T21:23:44.237Z,12.08
2023-05-08T21:26:12.351Z,11.80
2023-05-08T21:28:39.247Z,11.90
2023-05-08T21:31:06.203Z,11.99
2023-05-08T21:33:34.034Z,12.06
2023-05-08T21:36:00.911Z,11.87
2023-05-08T21:38:27.869Z,11.98
2023-05-08T21:40:55.812Z,11.74
2023-05-08T21:43:22.773Z,11.94
2023-05-08T21:45:49.635Z,11.93
2023-05-08T21:48:16.692Z,11.99
2023-05-08T21:50:43.583Z,11.56
2023-05-08T21:53:10.474Z,11.73
2023-05-08T21:55:37.354Z,11.92
2023-05-08T21:58:04.260Z,11.85
2023-05-08T22:00:31.122Z,11.77
2023-05-08T22:02:58.142Z,11.79
2023-05-08T22:05:25.143Z,11.71
2023-05-08T22:07:52.093Z,11.93
2023-05-08T22:10:18.973Z,11.93
2023-05-08T22:12:45.838Z,11.88
2023-05-08T22:15:25.514Z,12.02
2023-05-08T22:17:56.820Z,12.07
2023-05-08T22:20:23.877Z,12.03
2023-05-08T22:22:50.879Z,12.08
2023-05-08T22:25:17.783Z,11.74
2023-05-08T22:27:44.598Z,11.95
2023-05-08T22:30:11.713Z,11.92
2023-05-08T22:32:38.707Z,11.86
2023-05-08T22:35:06.801Z,11.75
2023-05-08T22:37:33.625Z,11.63
2023-05-08T22:40:00.552Z,11.60
2023-05-08T22:42:27.516Z,11.42
2023-05-08T22:44:54.397Z,11.55
2023-05-08T22:47:24.209Z,11.50
2023-05-08T22:49:51.599Z,11.52
2023-05-08T22:52:18.440Z,11.49
2023-05-08T22:54:45.312Z,11.37
2023-05-08T22:57:12.200Z,11.22
2023-05-08T22:59:39.064Z,11.23
2023-05-08T23:02:05.918Z,11.15
2023-05-08T23:04:32.869Z,11.30
2023-05-08T23:06:59.765Z,11.35
2023-05-08T23:09:26.640Z,11.20
2023-05-08T23:11:53.527Z,11.24
2023-05-08T23:14:20.537Z,11.35
2023-05-08T23:16:47.519Z,11.29
2023-05-08T23:19:14.557Z,11.22
2023-05-08T23:21:41.608Z,11.28
2023-05-08T23:24:08.525Z,11.25
2023-05-08T23:26:35.467Z,11.35
2023-05-08T23:29:02.301Z,11.03
2023-05-08T23:31:29.945Z,11.19
2023-05-08T23:33:57.290Z,11.03
2023-05-08T23:36:24.907Z,11.03
2023-05-08T23:38:51.762Z,11.06
2023-05-08T23:41:18.960Z,11.21
2023-05-08T23:43:45.785Z,11.14
2023-05-08T23:46:12.857Z,11.03
2023-05-08T23:48:39.771Z,11.14
2023-05-08T23:51:06.642Z,10.85
2023-05-08T23:53:33.520Z,10.89
2023-05-08T23:56:00.539Z,10.92
2023-05-08T23:58:27.408Z,10.98
